Flight Track Log - Related Links

Times and Time Zones

All times are in EDT time to prevent confusion due to time zone crossing. See the AWI3725 flight status page for this flight to view local times or setup timezone preferences in your user account.

Time Position Orientation Groundspeed Altitude Reporting Facility
EDT Latitude Longitude Course Direction KTS MPH feet Rate Location/Type
Sun 06:11:49 AM 44.4558 -73.2506 195° South 226 260 6,400  Level Boston Center
Sun 06:12:00 AM 44.1712 -73.2582 196° South  Level FlightAware Approximate
Sun 06:12:50 AM 44.3878 -73.2725 193° South 267 307 8,800  Level Boston Center
Sun 06:13:00 AM 44.0731 -73.2974 196° South  Level FlightAware Approximate
Sun 06:13:50 AM 44.3050 -73.2983 193° South 284 327 11,600  Level Boston Center
Sun 06:14:00 AM 43.9749 -73.3368 196° South  Level FlightAware Approximate
Sun 06:14:51 AM 44.2217 -73.3264 194° South 309 356 14,000  Level Boston Center
Sun 06:15:00 AM 43.8766 -73.3753 195° South  Level FlightAware Approximate
Sun 06:15:51 AM 44.1342 -73.3556 193° South 323 372 16,700  Level Boston Center
Sun 06:16:00 AM 43.7829 -73.4100 195° South  Level FlightAware Approximate
Sun 06:16:51 AM 44.0444 -73.3858 194° South 331 381 19,000  Level Boston Center
Sun 06:17:00 AM 43.6893 -73.4445 195° South  Level FlightAware Approximate
Sun 06:17:52 AM 43.9436 -73.4197 194° South 350 403 21,000  Level Boston Center
Sun 06:18:52 AM 43.8450 -73.4517 193° South 360 414 23,100 1,736 Climbing Boston Center
Sun 06:19:53 AM 43.7453 -73.4842 193° South 367 422 24,500 1,190 Climbing Boston Center
Sun 06:20:53 AM 43.6433 -73.5169 193° South 374 430 25,500 992 Climbing Boston Center
Sun 06:21:54 AM 43.5347 -73.5514 193° South 395 455 26,500 992 Climbing Boston Center
Sun 06:22:54 AM 43.4214 -73.5742 188° South 411 473 27,500 992 Climbing Boston Center
Sun 06:23:55 AM 43.3056 -73.5756 180° South 416 479 28,500 1,041 Climbing Boston Center
Sun 06:24:55 AM 43.1872 -73.5769 180° South 420 483 29,600 744 Climbing Boston Center
Sun 06:25:56 AM 43.0786 -73.5775 180° South 426 490 30,000 197 Climbing Boston Center
Sun 06:26:57 AM 42.9531 -73.5769 180° South 442 509 30,000  Level Boston Center
Sun 06:27:57 AM 42.8244 -73.5769 180° South 456 525 30,000  Level Boston Center
Sun 06:28:58 AM 42.6986 -73.5786 181° South 456 525 30,000  Level Boston Center
Sun 06:29:59 AM 42.5492 -73.5778 180° South 455 524 30,000  Level Boston Center
Sun 06:30:59 AM 42.4239 -73.5778 180° South 454 522 30,000  Level Boston Center
Sun 06:32:00 AM 42.3072 -73.5778 180° South 455 524 30,000  Level Boston Center
Sun 06:33:01 AM 42.1811 -73.5792 180° South 455 524 30,000  Level Boston Center
Sun 06:34:01 AM 42.0472 -73.5792 180° South 455 524 30,000  Level Boston Center
Sun 06:35:02 AM 41.9217 -73.5761 179° South 454 522 30,000  Level Boston Center
Sun 06:36:03 AM 41.7986 -73.5203 161° South 465 535 30,000  Level Boston Center
Sun 06:37:03 AM 41.6761 -73.4675 162° South 465 535 30,000  Level Boston Center
Sun 06:38:04 AM 41.5514 -73.4117 161° South 471 542 30,000  Level Boston Center
Sun 06:39:05 AM 41.4081 -73.3703 168° South 467 537 30,000  Level Boston Center
Sun 06:40:05 AM 41.3281 -73.4611 220° Southwest 405 466 30,000  Level Boston Center
Sun 06:41:06 AM 41.2681 -73.5733 235° Southwest 380 437 30,000  Level Boston Center
Sun 06:42:07 AM 41.2075 -73.6903 235° Southwest 380 437 30,000  Level Boston Center
Sun 06:43:08 AM 41.1478 -73.8056 235° Southwest 382 440 30,000  Level Boston Center
Sun 06:44:08 AM 41.0800 -73.9172 231° Southwest 386 444 30,000  Level Boston Center
Sun 06:45:09 AM 41.0136 -74.0297 232° Southwest 389 448 30,000  Level Boston Center
Sun 06:46:10 AM 40.9467 -74.1422 232° Southwest 389 448 30,000 -496 Level Boston Center
Sun 06:47:10 AM 40.8789 -74.2547 231° Southwest 390 449 29,000 -992 Descending Boston Center
Sun 06:48:11 AM 40.8097 -74.3697 232° Southwest 398 458 28,000 -492 Descending Boston Center
Sun 06:49:12 AM 40.7394 -74.4850 231° Southwest 383 441 28,000 -492 Level Boston Center
Sun 06:50:13 AM 40.6747 -74.5922 232° Southwest 377 434 27,000 -1,091 Descending Boston Center
Sun 06:51:13 AM 40.6069 -74.7033 231° Southwest 387 445 25,800 -1,190 Descending Boston Center
Sun 06:52:14 AM 40.5344 -74.8117 229° Southwest 397 457 24,600 -885 Descending Boston Center
Sun 06:53:15 AM 40.4606 -74.9158 227° Southwest 396 456 24,000 -295 Descending Boston Center
Sun 06:54:16 AM 40.3917 -75.0142 227° Southwest 377 434 24,000 -180 Level Boston Center
Sun 06:55:28 AM 40.3125 -75.1261 227° Southwest 367 422 23,600 -682 Descending New York Center
Sun 06:56:28 AM 40.2486 -75.2172 227° Southwest 354 407 22,500 -850 Descending New York Center
Sun 06:57:28 AM 40.1889 -75.3083 229° Southwest 349 402 21,900 -250 Descending New York Center
Sun 06:58:28 AM 40.1336 -75.3917 229° Southwest 331 381 22,000 50 Climbing New York Center
Sun 06:59:28 AM 40.0736 -75.4828 229° Southwest 316 364 22,000  Level New York Center
Sun 07:00:28 AM 40.0181 -75.5683 230° Southwest 316 364 22,000  Level New York Center
Sun 07:01:28 AM 39.9603 -75.6539 229° Southwest 321 369 22,000  Level New York Center
Sun 07:02:28 AM 39.9022 -75.7444 230° Southwest 321 369 22,000  Level New York Center
Sun 07:03:28 AM 39.8444 -75.8322 229° Southwest 326 375 22,000  Level New York Center
Sun 07:04:28 AM 39.7864 -75.9228 230° Southwest 326 375 22,000 -650 Level New York Center
Sun 07:05:28 AM 39.7239 -76.0153 229° Southwest 326 375 20,700 -1,300 Descending New York Center
Sun 07:06:28 AM 39.6658 -76.1000 228° Southwest 331 381 19,400 -1,350 Descending New York Center
Sun 07:07:28 AM 39.6386 -76.1922 249° West 309 356 18,000 -1,492 Descending New York Center
Sun 07:09:29 AM 39.5500 -76.3500 234° Southwest 310 357 14,900 -1,714 Descending Potomac TRACON
Sun 07:10:23 AM 39.5000 -76.4000 218° Southwest 292 336 13,000 -1,611 Descending Potomac TRACON
Sun 07:11:17 AM 39.4333 -76.4500 210° Southwest 293 337 12,000 -579 Descending Potomac TRACON
Sun 07:12:17 AM 39.3667 -76.5167 218° Southwest 293 337 11,900 -526 Descending Potomac TRACON
Sun 07:13:11 AM 39.3000 -76.5667 210° Southwest 283 326 11,000 -1,000 Descending Potomac TRACON
Sun 07:14:11 AM 39.2333 -76.6167 210° Southwest 276 318 10,000 -500 Descending Potomac TRACON
Sun 07:15:11 AM 39.1667 -76.6667 210° Southwest 275 316 10,000  Level Potomac TRACON
Sun 07:16:11 AM 39.1167 -76.7333 226° Southwest 249 287 10,000 -300 Level Potomac TRACON
Sun 07:17:11 AM 39.0667 -76.8000 226° Southwest 261 300 9,400 -1,158 Descending Potomac TRACON
Sun 07:18:05 AM 39.0167 -76.8500 218° Southwest 259 298 7,800 -1,737 Descending Potomac TRACON
Sun 07:19:05 AM 38.9500 -76.9167 218° Southwest 266 306 6,100 -1,050 Descending Potomac TRACON
Sun 07:20:05 AM 38.8833 -76.9333 191° South 280 322 5,700 -1,043 Descending Potomac TRACON
Sun 07:21:00 AM 38.8167 -76.9500 191° South 273 314 4,100 -887 Descending Potomac TRACON
Sun 07:22:00 AM 38.7500 -76.9500 180° South 226 260 4,000 -50 Descending Potomac TRACON
Sun 07:23:00 AM 38.7000 -76.9333 165° South 194 223 4,000 -50 Level Potomac TRACON
Sun 07:24:00 AM 38.6500 -76.9333 180° South 197 227 3,900 -579 Descending Potomac TRACON
Sun 07:24:54 AM 38.6333 -76.9833 247° West 185 213 2,900 -737 Descending Potomac TRACON
Sun 07:25:54 AM 38.6667 -77.0167 322° Northwest 167 192 2,500 -211 Descending Potomac TRACON
Sun 07:26:48 AM 38.7167 -77.0167 360° North 166 191 2,500 -368 Level Potomac TRACON
Sun 07:27:48 AM 38.7500 -77.0333 339° North 132 152 1,800 -600 Descending Potomac TRACON
Sun 07:28:48 AM 38.7833 -77.0333 360° North 122 140 1,300 -600 Descending Potomac TRACON
Sun 07:29:48 AM 38.8167 -77.0167 21° North 122 140 600 -700 Descending Potomac TRACON

Login

Don't have an account? Register now (free) for customized features, flight alerts, and more!